Observation data for Paducah on 01/17/2019      Previous  Date  Next       Current Mesonet Observations  Soil Data  Daily Summary Page  Observations in Plain Language
KPAD 170600Z 29016KT 14/M01 A3001 RMK A01 T01371006  RH  038%=      5-min Rain = 0
KPAD 170605Z 30015G20KT 14/M01 A3001 RMK A01 T01361006  RH  038%=      5-min Rain = 0
KPAD 170610Z 30015KT 14/M01 A3001 RMK A01 T01351006  RH  038%=      5-min Rain = 0
KPAD 170615Z 30015G20KT 13/M01 A3001 RMK A01 T01341006  RH  039%=      5-min Rain = 0
KPAD 170620Z 29016KT 14/M01 A3001 RMK A01 T01351005  RH  038%=      5-min Rain = 0
KPAD 170625Z 30016KT 13/M01 A3001 RMK A01 T01341005  RH  039%=      5-min Rain = 0
KPAD 170630Z 29017KT 13/M01 A30 RMK A01 T01331005  RH  039%=      5-min Rain = 0
KPAD 170635Z 29016G22KT 13/M01 A30 RMK A01 T01321005  RH  039%=      5-min Rain = 0
KPAD 170640Z 28017G23KT 13/M01 A30 RMK A01 T01331006  RH  039%=      5-min Rain = 0
KPAD 170645Z 29017KT 13/M01 A30 RMK A01 T01341006  RH  039%=      5-min Rain = 0
KPAD 170650Z 29017G22KT 13/M01 A30 RMK A01 T01331006  RH  039%=      5-min Rain = 0
KPAD 170655Z 29018KT 14/M01 A2999 RMK A01 T01351006  RH  038%=      5-min Rain = 0
KPAD 170700Z 29017G22KT 13/M01 A2999 RMK A01 T01341006  RH  038%=      5-min Rain = 0
KPAD 170705Z 28017G22KT 13/M01 A2999 RMK A01 T01331006  RH  039%=      5-min Rain = 0
KPAD 170710Z 28017G22KT 13/M01 A2999 RMK A01 T01331006  RH  039%=      5-min Rain = 0
KPAD 170715Z 28016KT 13/M01 A2999 RMK A01 T01331006  RH  039%=      5-min Rain = 0
KPAD 170720Z 28016KT 13/M01 A2999 RMK A01 T01321006  RH  039%=      5-min Rain = 0
KPAD 170725Z 28016G21KT 13/M01 A2999 RMK A01 T01311006  RH  039%=      5-min Rain = 0
KPAD 170730Z 28015KT 13/M01 A30 RMK A01 T01301006  RH  040%=      5-min Rain = 0
KPAD 170735Z 28014G21KT 13/M01 A30 RMK A01 T01291005  RH  040%=      5-min Rain = 0
KPAD 170740Z 28015KT 13/M01 A30 RMK A01 T01281005  RH  040%=      5-min Rain = 0
KPAD 170745Z 28013G18KT 13/M01 A30 RMK A01 T01271005  RH  041%=      5-min Rain = 0
KPAD 170750Z 32009KT 12/M00 A3001 RMK A01 T01241004  RH  042%=      5-min Rain = 0
KPAD 170755Z 35007KT 11/M01 A3001 RMK A01 T01111005  RH  045%=      5-min Rain = 0
KPAD 170800Z 30009KT 10/M00 A3001 RMK A01 T00981004  RH  050%=      5-min Rain = 0
KPAD 170805Z 29009KT 10/M00 A3001 RMK A01 T00971002  RH  051%=      5-min Rain = 0
KPAD 170810Z 28011KT 10/M00 A3002 RMK A01 T01021001  RH  049%=      5-min Rain = 0
KPAD 170815Z 28012KT 11/M00 A3002 RMK A01 T01061002  RH  048%=      5-min Rain = 0
KPAD 170820Z 29010KT 11/M00 A3002 RMK A01 T01081002  RH  047%=      5-min Rain = 0
KPAD 170825Z 29010KT 11/M00 A3003 RMK A01 T01051001  RH  048%=      5-min Rain = 0
KPAD 170830Z 30008KT 10/M00 A3003 RMK A01 T01041001  RH  049%=      5-min Rain = 0
KPAD 170835Z 30009KT 10/M00 A3003 RMK A01 T01021001  RH  050%=      5-min Rain = 0
KPAD 170840Z 31008KT 10/00 A3004 RMK A01 T010100-0  RH  050%=      5-min Rain = 0
KPAD 170845Z 31009KT 10/00 A3004 RMK A01 T009800-0  RH  051%=      5-min Rain = 0
KPAD 170850Z 30010KT 10/00 A3004 RMK A01 T009900-0  RH  051%=      5-min Rain = 0
KPAD 170855Z 31010KT 10/00 A3004 RMK A01 T010100-0  RH  050%=      5-min Rain = 0
KPAD 170900Z 01012G18KT 10/00 A3005 RMK A01 T00990000  RH  051%=      5-min Rain = 0
KPAD 170905Z 02012G17KT 09/01 A3006 RMK A01 T00860007  RH  058%=      5-min Rain = 0
KPAD 170910Z 02009KT 08/01 A3007 RMK A01 T00760008  RH  063%=      5-min Rain = 0
KPAD 170915Z 01009KT 07/01 A3007 RMK A01 T00680010  RH  067%=      5-min Rain = 0
KPAD 170920Z 36007KT 06/01 A3007 RMK A01 T00630011  RH  070%=      5-min Rain = 0
KPAD 170925Z 35006KT 06/01 A3008 RMK A01 T00590011  RH  073%=      5-min Rain = 0
KPAD 170930Z 34006KT 05/01 A3008 RMK A01 T00540011  RH  075%=      5-min Rain = 0
KPAD 170935Z 33005KT 05/01 A3008 RMK A01 T00510011  RH  077%=      5-min Rain = 0
KPAD 170940Z 34005KT 05/01 A3008 RMK A01 T00470010  RH  078%=      5-min Rain = 0
KPAD 170945Z 35006KT 04/01 A3009 RMK A01 T00440009  RH  079%=      5-min Rain = 0
KPAD 170950Z 35006KT 04/01 A3009 RMK A01 T00410008  RH  080%=      5-min Rain = 0
KPAD 170955Z 35006KT 04/01 A3009 RMK A01 T00380007  RH  081%=      5-min Rain = 0
KPAD 171000Z 35008KT 04/01 A3008 RMK A01 T00360009  RH  083%=      5-min Rain = 0
KPAD 171005Z 35008KT 04/01 A3008 RMK A01 T00360010  RH  084%=      5-min Rain = 0
KPAD 171010Z 35009KT 04/01 A3008 RMK A01 T00350010  RH  085%=      5-min Rain = 0
KPAD 171015Z 34009KT 03/01 A3008 RMK A01 T00330010  RH  086%=      5-min Rain = 0
KPAD 171020Z 34009KT 03/01 A3008 RMK A01 T00310010  RH  087%=      5-min Rain = 0
KPAD 171025Z 34009KT 03/01 A3008 RMK A01 T00290009  RH  088%=      5-min Rain = 0
KPAD 171030Z 35009KT 03/01 A3008 RMK A01 T00300012  RH  089%=      5-min Rain = 0
KPAD 171035Z 35009KT 03/01 A3008 RMK A01 T00310014  RH  090%=      5-min Rain = 0
KPAD 171040Z 35009KT 03/02 A3008 RMK A01 T00330016  RH  090%=      5-min Rain = 0
KPAD 171045Z 35010KT 04/02 A3008 RMK A01 T00350018  RH  090%=      5-min Rain = 0
KPAD 171050Z 35010KT 04/02 A3008 RMK A01 T00350019  RH  090%=      5-min Rain = 0
KPAD 171055Z 35010KT 04/02 A3009 RMK A01 T00350019  RH  091%=      5-min Rain = 0
KPAD 171100Z 35010KT 04/02 A3009 RMK A01 T00350019  RH  091%=      5-min Rain = 0
KPAD 171105Z 35010KT 04/02 A3009 RMK A01 T00350020  RH  091%=      5-min Rain = 0
KPAD 171110Z 35010KT 04/02 A3009 RMK A01 T00350020  RH  092%=      5-min Rain = 0
KPAD 171115Z 34010KT 03/02 A3009 RMK A01 T00340019  RH  091%=      5-min Rain = 0
KPAD 171120Z 35009KT 03/02 A3009 RMK A01 T00320018  RH  092%=      5-min Rain = 0
KPAD 171125Z 35007KT 03/02 A3009 RMK A01 T00320019  RH  092%=      5-min Rain = 0
KPAD 171130Z 00005KT 03/02 A301 RMK A01 T00310017  RH  092%=      5-min Rain = 0
KPAD 171135Z 35003KT 03/02 A301 RMK A01 T00290016  RH  092%=      5-min Rain = 0
KPAD 171140Z 28002KT 03/02 A301 RMK A01 T00280015  RH  093%=      5-min Rain = 0
KPAD 171145Z 30003KT 03/02 A301 RMK A01 T00270015  RH  093%=      5-min Rain = 0
KPAD 171150Z 31005KT 03/01 A301 RMK A01 T00260014  RH  093%=      5-min Rain = 0
KPAD 171155Z 31006KT 03/01 A301 RMK A01 T00260014  RH  094%=      5-min Rain = 0
KPAD 171200Z 32007KT 03/02 A301 RMK A01 T00260015  RH  094%=      5-min Rain = 0
KPAD 171205Z 32007KT 03/01 A301 RMK A01 T00250014  RH  094%=      5-min Rain = 0
KPAD 171210Z 32008KT 02/01 A3011 RMK A01 T00240014  RH  094%=      5-min Rain = 0
KPAD 171215Z 32007KT 02/01 A3011 RMK A01 T00230013  RH  094%=      5-min Rain = 0
KPAD 171220Z 32008KT 02/01 A3011 RMK A01 T00210011  RH  094%=      5-min Rain = 0
KPAD 171225Z 32009KT 02/01 A3011 RMK A01 T00190009  RH  095%=      5-min Rain = 0
KPAD 171230Z 32009KT 02/01 A3012 RMK A01 T00170008  RH  095%=      5-min Rain = 0
KPAD 171235Z 33009KT 02/01 A3012 RMK A01 T00170008  RH  095%=      5-min Rain = 0
KPAD 171240Z 33010KT 02/01 A3012 RMK A01 T00170009  RH  096%=      5-min Rain = 0
KPAD 171245Z 33010KT 02/01 A3012 RMK A01 T00160008  RH  095%=      5-min Rain = 0
KPAD 171250Z 33010KT 02/01 A3012 RMK A01 T00150007  RH  095%=      5-min Rain = 0
KPAD 171255Z 33009KT 01/01 A3012 RMK A01 T00140006  RH  096%=      5-min Rain = 0
KPAD 171300Z 33009KT 01/01 A3012 RMK A01 T00140007  RH  096%=      5-min Rain = 0
KPAD 171305Z 32009KT 02/01 A3012 RMK A01 T00170010  RH  096%=      5-min Rain = 0
KPAD 171310Z 32008KT 02/01 A3013 RMK A01 T00190011  RH  096%=      5-min Rain = 0
KPAD 171315Z 32008KT 02/01 A3013 RMK A01 T00190011  RH  095%=      5-min Rain = 0
KPAD 171320Z 32007KT 02/01 A3013 RMK A01 T00210012  RH  095%=      5-min Rain = 0
KPAD 171325Z 33006KT 02/01 A3014 RMK A01 T00220013  RH  095%=      5-min Rain = 0
KPAD 171330Z 33004KT 02/01 A3014 RMK A01 T00230013  RH  094%=      5-min Rain = 0
KPAD 171335Z 20002KT 02/01 A3015 RMK A01 T00220011  RH  094%=      5-min Rain = 0
KPAD 171340Z 18003KT 02/01 A3015 RMK A01 T00180006  RH  093%=      5-min Rain = 0
KPAD 171345Z 03001KT 02/01 A3015 RMK A01 T00160005  RH  094%=      5-min Rain = 0
KPAD 171350Z 35002KT 02/01 A3015 RMK A01 T00180008  RH  094%=      5-min Rain = 0
KPAD 171355Z 16003KT 02/01 A3016 RMK A01 T00180006  RH  093%=      5-min Rain = 0
KPAD 171400Z 17005KT 01/00 A3016 RMK A01 T00130002  RH  093%=      5-min Rain = 0
KPAD 171405Z 21004KT 02/00 A3016 RMK A01 T00150004  RH  094%=      5-min Rain = 0
KPAD 171410Z 22003KT 02/01 A3017 RMK A01 T00160005  RH  094%=      5-min Rain = 0
KPAD 171415Z 22002KT 02/00 A3017 RMK A01 T00160004  RH  093%=      5-min Rain = 0
KPAD 171420Z 29002KT 02/01 A3016 RMK A01 T00190007  RH  094%=      5-min Rain = 0
KPAD 171425Z 35001KT 03/01 A3016 RMK A01 T00250014  RH  094%=      5-min Rain = 0
KPAD 171430Z 35001KT 03/02 A3016 RMK A01 T00330021  RH  093%=      5-min Rain = 0
KPAD 171435Z 29002KT 04/02 A3017 RMK A01 T00350019  RH  091%=      5-min Rain = 0
KPAD 171440Z 31003KT 04/02 A3017 RMK A01 T00370021  RH  091%=      5-min Rain = 0
KPAD 171445Z 32004KT 04/02 A3017 RMK A01 T00390021  RH  089%=      5-min Rain = 0
KPAD 171450Z 33003KT 04/02 A3017 RMK A01 T00410022  RH  088%=      5-min Rain = 0
KPAD 171455Z 34002KT 04/02 A3018 RMK A01 T00440022  RH  087%=      5-min Rain = 0
KPAD 171500Z 35002KT 05/02 A3018 RMK A01 T00480024  RH  086%=      5-min Rain = 0
KPAD 171505Z 06001KT 05/03 A3018 RMK A01 T00520025  RH  084%=      5-min Rain = 0
KPAD 171510Z 13002KT 06/03 A3018 RMK A01 T00570027  RH  082%=      5-min Rain = 0
KPAD 171515Z 13002KT 06/03 A3018 RMK A01 T00600026  RH  080%=      5-min Rain = 0
KPAD 171520Z 14004KT 06/03 A3019 RMK A01 T00600025  RH  079%=      5-min Rain = 0
KPAD 171525Z 13003KT 06/02 A3019 RMK A01 T00600022  RH  078%=      5-min Rain = 0
KPAD 171530Z 07001KT 06/02 A3019 RMK A01 T00600020  RH  077%=      5-min Rain = 0
KPAD 171535Z 06002KT 06/02 A3018 RMK A01 T00600021  RH  077%=      5-min Rain = 0
KPAD 171540Z 12003KT 06/02 A3018 RMK A01 T00610023  RH  077%=      5-min Rain = 0
KPAD 171545Z 12001KT 06/02 A3018 RMK A01 T00630023  RH  077%=      5-min Rain = 0
KPAD 171550Z 13002KT 07/02 A3018 RMK A01 T00650023  RH  076%=      5-min Rain = 0
KPAD 171555Z 12003KT 07/02 A3019 RMK A01 T00680023  RH  074%=      5-min Rain = 0
KPAD 171600Z 14003KT 07/02 A3019 RMK A01 T00700024  RH  074%=      5-min Rain = 0
KPAD 171605Z 12003KT 07/02 A3019 RMK A01 T00730024  RH  072%=      5-min Rain = 0
KPAD 171610Z 12002KT 08/02 A3019 RMK A01 T00760024  RH  071%=      5-min Rain = 0
KPAD 171615Z 06002KT 08/03 A3019 RMK A01 T00780025  RH  070%=      5-min Rain = 0
KPAD 171620Z 05002KT 08/02 A3019 RMK A01 T00800024  RH  069%=      5-min Rain = 0
KPAD 171625Z 04003KT 08/02 A3019 RMK A01 T00820024  RH  068%=      5-min Rain = 0
KPAD 171630Z 03002KT 08/02 A3019 RMK A01 T00840023  RH  067%=      5-min Rain = 0
KPAD 171635Z 04003KT 09/03 A302 RMK A01 T00870025  RH  066%=      5-min Rain = 0
KPAD 171640Z 02002KT 09/03 A302 RMK A01 T00910026  RH  065%=      5-min Rain = 0
KPAD 171645Z 04001KT 09/03 A302 RMK A01 T00940026  RH  063%=      5-min Rain = 0
KPAD 171650Z 04003KT 10/02 A302 RMK A01 T00980024  RH  061%=      5-min Rain = 0
KPAD 171655Z 07001KT 10/03 A302 RMK A01 T00980025  RH  061%=      5-min Rain = 0
KPAD 171700Z 13003KT 10/03 A302 RMK A01 T01030027  RH  060%=      5-min Rain = 0
KPAD 171705Z 10003KT 11/03 A302 RMK A01 T01060028  RH  059%=      5-min Rain = 0
KPAD 171710Z 13003KT 11/03 A3021 RMK A01 T01070027  RH  059%=      5-min Rain = 0
KPAD 171715Z 12004KT 11/03 A3021 RMK A01 T01070027  RH  059%=      5-min Rain = 0
KPAD 171720Z 14003KT 11/03 A3021 RMK A01 T01090029  RH  059%=      5-min Rain = 0
KPAD 171725Z 12004KT 11/03 A3021 RMK A01 T01100027  RH  058%=      5-min Rain = 0
KPAD 171730Z 11003KT 11/03 A302 RMK A01 T01080027  RH  058%=      5-min Rain = 0
KPAD 171735Z 11003KT 11/03 A302 RMK A01 T01110027  RH  057%=      5-min Rain = 0
KPAD 171740Z 14002KT 12/03 A302 RMK A01 T01150028  RH  056%=      5-min Rain = 0
KPAD 171745Z 13003KT 12/03 A302 RMK A01 T01170027  RH  055%=      5-min Rain = 0
KPAD 171750Z 12004KT 12/03 A302 RMK A01 T01180027  RH  055%=      5-min Rain = 0
KPAD 171755Z 10004KT 12/03 A302 RMK A01 T01190027  RH  054%=      5-min Rain = 0
KPAD 171800Z 11004KT 12/03 A302 RMK A01 T01210027  RH  054%=      5-min Rain = 0
KPAD 171805Z 11004KT 12/03 A302 RMK A01 T01240027  RH  053%=      5-min Rain = 0
KPAD 171810Z 12005KT 13/03 A302 RMK A01 T01260027  RH  052%=      5-min Rain = 0
KPAD 171815Z 13004KT 13/03 A3019 RMK A01 T01290027  RH  051%=      5-min Rain = 0
KPAD 171820Z 12004KT 13/03 A3019 RMK A01 T01260025  RH  051%=      5-min Rain = 0
KPAD 171825Z 12005KT 13/03 A3018 RMK A01 T01270026  RH  051%=      5-min Rain = 0
KPAD 171830Z 14004KT 13/03 A3018 RMK A01 T01300026  RH  050%=      5-min Rain = 0
KPAD 171835Z 15004KT 13/03 A3018 RMK A01 T01310025  RH  049%=      5-min Rain = 0
KPAD 171840Z 14002KT 13/03 A3017 RMK A01 T01340026  RH  049%=      5-min Rain = 0
KPAD 171845Z 16003KT 14/03 A3017 RMK A01 T01390027  RH  047%=      5-min Rain = 0
KPAD 171850Z 16004KT 14/03 A3017 RMK A01 T01390027  RH  047%=      5-min Rain = 0
KPAD 171855Z 13002KT 14/03 A3017 RMK A01 T01400027  RH  047%=      5-min Rain = 0
KPAD 171900Z 11003KT 14/03 A3016 RMK A01 T01400027  RH  047%=      5-min Rain = 0
KPAD 171905Z 11001KT 14/03 A3016 RMK A01 T01400028  RH  048%=      5-min Rain = 0
KPAD 171910Z 11004KT 14/03 A3015 RMK A01 T01430029  RH  047%=      5-min Rain = 0
KPAD 171915Z 09002KT 14/03 A3015 RMK A01 T01440028  RH  047%=      5-min Rain = 0
KPAD 171920Z 04001KT 15/03 A3014 RMK A01 T01490029  RH  045%=      5-min Rain = 0
KPAD 171925Z 06002KT 15/03 A3014 RMK A01 T01520027  RH  044%=      5-min Rain = 0
KPAD 171930Z 11004KT 15/03 A3013 RMK A01 T01520027  RH  044%=      5-min Rain = 0
KPAD 171935Z 13003KT 15/03 A3012 RMK A01 T01510028  RH  044%=      5-min Rain = 0
KPAD 171940Z 12004KT 16/03 A3012 RMK A01 T01550027  RH  043%=      5-min Rain = 0
KPAD 171945Z 11004KT 16/03 A3012 RMK A01 T01560026  RH  042%=      5-min Rain = 0
KPAD 171950Z 14004KT 16/02 A3012 RMK A01 T01560024  RH  042%=      5-min Rain = 0
KPAD 171955Z 13003KT 16/02 A3012 RMK A01 T01560024  RH  042%=      5-min Rain = 0
KPAD 172000Z 04002KT 16/02 A3011 RMK A01 T01580023  RH  041%=      5-min Rain = 0
KPAD 172005Z 04002KT 16/02 A3011 RMK A01 T01580023  RH  041%=      5-min Rain = 0
KPAD 172010Z 09003KT 16/03 A3011 RMK A01 T01600025  RH  041%=      5-min Rain = 0
KPAD 172015Z 13005KT 16/03 A3011 RMK A01 T01610025  RH  041%=      5-min Rain = 0
KPAD 172020Z 12005KT 16/03 A301 RMK A01 T01590025  RH  041%=      5-min Rain = 0
KPAD 172025Z 11004KT 16/02 A301 RMK A01 T01590024  RH  041%=      5-min Rain = 0
KPAD 172030Z 13004KT 16/02 A301 RMK A01 T01620023  RH  040%=      5-min Rain = 0
KPAD 172035Z 12005KT 16/02 A301 RMK A01 T01620022  RH  040%=      5-min Rain = 0
KPAD 172040Z 12004KT 16/02 A301 RMK A01 T01610022  RH  040%=      5-min Rain = 0
KPAD 172045Z 10003G8KT 16/02 A301 RMK A01 T01610022  RH  040%=      5-min Rain = 0
KPAD 172050Z 11004KT 16/02 A301 RMK A01 T01630020  RH  039%=      5-min Rain = 0
KPAD 172055Z 12004KT 16/02 A3009 RMK A01 T01630019  RH  038%=      5-min Rain = 0
KPAD 172100Z 13006KT 16/02 A3009 RMK A01 T01640023  RH  039%=      5-min Rain = 0
KPAD 172105Z 13006KT 17/03 A3009 RMK A01 T01660027  RH  040%=      5-min Rain = 0
KPAD 172110Z 11006KT 17/03 A3009 RMK A01 T01670025  RH  039%=      5-min Rain = 0
KPAD 172115Z 12005KT 17/03 A3009 RMK A01 T01660025  RH  039%=      5-min Rain = 0
KPAD 172120Z 12004KT 16/03 A3009 RMK A01 T01640027  RH  041%=      5-min Rain = 0
KPAD 172125Z 12005KT 17/03 A3009 RMK A01 T01660029  RH  040%=      5-min Rain = 0
KPAD 172130Z 12005KT 17/03 A3009 RMK A01 T01670027  RH  040%=      5-min Rain = 0
KPAD 172135Z 12005KT 17/03 A3009 RMK A01 T01670027  RH  040%=      5-min Rain = 0
KPAD 172140Z 13005KT 17/03 A3009 RMK A01 T01670026  RH  039%=      5-min Rain = 0
KPAD 172145Z 12005KT 17/03 A3009 RMK A01 T01690025  RH  039%=      5-min Rain = 0
KPAD 172150Z 12007KT 17/02 A3009 RMK A01 T01700024  RH  038%=      5-min Rain = 0
KPAD 172155Z 13005KT 17/02 A3009 RMK A01 T01700020  RH  037%=      5-min Rain = 0
KPAD 172200Z 12006KT 17/02 A3009 RMK A01 T01720020  RH  037%=      5-min Rain = 0
KPAD 172205Z 13005KT 17/02 A3009 RMK A01 T01720019  RH  036%=      5-min Rain = 0
KPAD 172210Z 12006KT 17/02 A3009 RMK A01 T01740017  RH  035%=      5-min Rain = 0
KPAD 172215Z 13006KT 17/02 A3009 RMK A01 T01740019  RH  036%=      5-min Rain = 0
KPAD 172220Z 13006KT 18/02 A3009 RMK A01 T01760017  RH  035%=      5-min Rain = 0
KPAD 172225Z 13007KT 17/02 A3009 RMK A01 T01740019  RH  036%=      5-min Rain = 0
KPAD 172230Z 13008KT 17/02 A3009 RMK A01 T01720022  RH  037%=      5-min Rain = 0
KPAD 172235Z 13008KT 17/02 A3009 RMK A01 T01710024  RH  038%=      5-min Rain = 0
KPAD 172240Z 14009KT 17/02 A3009 RMK A01 T01710020  RH  037%=      5-min Rain = 0
KPAD 172245Z 15009KT 17/02 A3009 RMK A01 T01700015  RH  036%=      5-min Rain = 0
KPAD 172250Z 15009KT 17/02 A3009 RMK A01 T01680018  RH  037%=      5-min Rain = 0
KPAD 172255Z 16010KT 17/02 A3008 RMK A01 T01660020  RH  038%=      5-min Rain = 0
KPAD 172300Z 15009KT 16/02 A3008 RMK A01 T01640022  RH  039%=      5-min Rain = 0
KPAD 172305Z 15009KT 16/03 A3008 RMK A01 T01630027  RH  041%=      5-min Rain = 0
KPAD 172310Z 15008KT 16/03 A3008 RMK A01 T01610029  RH  042%=      5-min Rain = 0
KPAD 172315Z 16009KT 16/03 A3008 RMK A01 T01590028  RH  042%=      5-min Rain = 0
KPAD 172320Z 15009KT 16/03 A3008 RMK A01 T01570027  RH  042%=      5-min Rain = 0
KPAD 172325Z 16009KT 16/03 A3008 RMK A01 T01550029  RH  043%=      5-min Rain = 0
KPAD 172330Z 16009KT 15/03 A3007 RMK A01 T01530026  RH  043%=      5-min Rain = 0
KPAD 172335Z 16008KT 15/03 A3007 RMK A01 T01490027  RH  045%=      5-min Rain = 0
KPAD 172340Z 16008KT 14/03 A3007 RMK A01 T01430029  RH  047%=      5-min Rain = 0
KPAD 172345Z 16008KT 14/03 A3007 RMK A01 T01390030  RH  049%=      5-min Rain = 0
KPAD 172350Z 16008KT 14/03 A3007 RMK A01 T01360032  RH  050%=      5-min Rain = 0
KPAD 172355Z 16009KT 13/03 A3007 RMK A01 T01340034  RH  052%=      5-min Rain = 0
KPAD 180000Z 16009KT 13/04 A3007 RMK A01 T01310036  RH  054%=      5-min Rain = 0
KPAD 180005Z 17009KT 13/04 A3007 RMK A01 T01270037  RH  055%=      5-min Rain = 0
KPAD 180010Z 17009KT 12/04 A3007 RMK A01 T01230038  RH  057%=      5-min Rain = 0
KPAD 180015Z 16009KT 12/04 A3007 RMK A01 T01200039  RH  059%=      5-min Rain = 0
KPAD 180020Z 16009KT 12/04 A3007 RMK A01 T01170040  RH  060%=      5-min Rain = 0
KPAD 180025Z 16009KT 11/04 A3007 RMK A01 T01140041  RH  062%=      5-min Rain = 0
KPAD 180030Z 16009KT 11/04 A3007 RMK A01 T01130043  RH  063%=      5-min Rain = 0
KPAD 180035Z 16009KT 11/04 A3007 RMK A01 T01110044  RH  065%=      5-min Rain = 0
KPAD 180040Z 17009KT 11/05 A3007 RMK A01 T01080045  RH  066%=      5-min Rain = 0
KPAD 180045Z 16009KT 11/05 A3007 RMK A01 T01060045  RH  068%=      5-min Rain = 0
KPAD 180050Z 16009KT 10/05 A3007 RMK A01 T01040046  RH  069%=      5-min Rain = 0
KPAD 180055Z 16009KT 10/05 A3007 RMK A01 T01020046  RH  070%=      5-min Rain = 0
KPAD 180100Z 16009KT 10/05 A3007 RMK A01 T00990046  RH  071%=      5-min Rain = 0
KPAD 180105Z 16009KT 10/05 A3007 RMK A01 T00980047  RH  072%=      5-min Rain = 0
KPAD 180110Z 16009KT 10/05 A3007 RMK A01 T00970047  RH  073%=      5-min Rain = 0
KPAD 180115Z 16009KT 10/05 A3007 RMK A01 T00950046  RH  073%=      5-min Rain = 0
KPAD 180120Z 16009KT 09/05 A3007 RMK A01 T00940046  RH  074%=      5-min Rain = 0
KPAD 180125Z 16008KT 09/05 A3007 RMK A01 T00920045  RH  074%=      5-min Rain = 0
KPAD 180130Z 16008KT 09/04 A3007 RMK A01 T00890044  RH  075%=      5-min Rain = 0
KPAD 180135Z 16008KT 09/04 A3007 RMK A01 T00870044  RH  076%=      5-min Rain = 0
KPAD 180140Z 16008KT 09/04 A3007 RMK A01 T00850043  RH  077%=      5-min Rain = 0
KPAD 180145Z 16007KT 08/04 A3007 RMK A01 T00830042  RH  077%=      5-min Rain = 0
KPAD 180150Z 17007KT 08/04 A3007 RMK A01 T00800041  RH  078%=      5-min Rain = 0
KPAD 180155Z 17008KT 08/04 A3007 RMK A01 T00780042  RH  079%=      5-min Rain = 0
KPAD 180200Z 17008KT 08/04 A3007 RMK A01 T00770042  RH  080%=      5-min Rain = 0
KPAD 180205Z 17007KT 08/04 A3007 RMK A01 T00760042  RH  080%=      5-min Rain = 0
KPAD 180210Z 17007KT 08/04 A3007 RMK A01 T00770043  RH  081%=      5-min Rain = 0
KPAD 180215Z 17007KT 08/04 A3006 RMK A01 T00770043  RH  081%=      5-min Rain = 0
KPAD 180220Z 17007KT 08/04 A3006 RMK A01 T00760043  RH  081%=      5-min Rain = 0
KPAD 180225Z 17006KT 08/04 A3006 RMK A01 T00750043  RH  082%=      5-min Rain = 0
KPAD 180230Z 17006KT 07/04 A3006 RMK A01 T00740043  RH  082%=      5-min Rain = 0
KPAD 180235Z 17007KT 07/04 A3007 RMK A01 T00740042  RH  082%=      5-min Rain = 0
KPAD 180240Z 16006KT 07/04 A3007 RMK A01 T00730043  RH  083%=      5-min Rain = 0
KPAD 180245Z 16005KT 07/04 A3007 RMK A01 T00730043  RH  083%=      5-min Rain = 0
KPAD 180250Z 18003KT 07/04 A3007 RMK A01 T00710040  RH  083%=      5-min Rain = 0
KPAD 180255Z 20003KT 07/04 A3007 RMK A01 T00670037  RH  083%=      5-min Rain = 0
KPAD 180300Z 19005KT 06/04 A3007 RMK A01 T00640037  RH  084%=      5-min Rain = 0
KPAD 180305Z 18005KT 06/04 A3007 RMK A01 T00620035  RH  085%=      5-min Rain = 0
KPAD 180310Z 17005KT 06/04 A3006 RMK A01 T00600036  RH  086%=      5-min Rain = 0
KPAD 180315Z 18007KT 06/04 A3006 RMK A01 T00600036  RH  086%=      5-min Rain = 0
KPAD 180320Z 19008KT 06/04 A3006 RMK A01 T00570035  RH  087%=      5-min Rain = 0
KPAD 180325Z 20009KT 06/03 A3005 RMK A01 T00550034  RH  088%=      5-min Rain = 0
KPAD 180330Z 20011KT 06/04 A3005 RMK A01 T00570039  RH  090%=      5-min Rain = 0
KPAD 180335Z 20010KT 06/04 A3004 RMK A01 T00590041  RH  090%=      5-min Rain = 0
KPAD 180340Z 20011KT 06/04 A3004 RMK A01 T00610042  RH  090%=      5-min Rain = 0
KPAD 180345Z 20011KT 06/04 A3004 RMK A01 T00630044  RH  089%=      5-min Rain = 0
KPAD 180350Z 20011KT 06/04 A3004 RMK A01 T00630043  RH  089%=      5-min Rain = 0
KPAD 180355Z 20011KT 06/04 A3004 RMK A01 T00630043  RH  089%=      5-min Rain = 0
KPAD 180400Z 20011KT 06/04 A3003 RMK A01 T00630043  RH  089%=      5-min Rain = 0
KPAD 180405Z 20011KT 06/04 A3003 RMK A01 T00600040  RH  089%=      5-min Rain = 0
KPAD 180410Z 20011KT 06/04 A3003 RMK A01 T00570039  RH  090%=      5-min Rain = 0
KPAD 180415Z 20011KT 06/04 A3003 RMK A01 T00570039  RH  090%=      5-min Rain = 0
KPAD 180420Z 19010KT 06/04 A3003 RMK A01 T00560039  RH  090%=      5-min Rain = 0
KPAD 180425Z 19009KT 06/04 A3003 RMK A01 T00550038  RH  091%=      5-min Rain = 0
KPAD 180430Z 19009KT 05/04 A3003 RMK A01 T00540037  RH  091%=      5-min Rain = 0
KPAD 180435Z 19010KT 05/04 A3002 RMK A01 T00540038  RH  091%=      5-min Rain = 0
KPAD 180440Z 19010KT 05/04 A3002 RMK A01 T00530037  RH  091%=      5-min Rain = 0
KPAD 180445Z 19009KT 05/04 A3002 RMK A01 T00520036  RH  091%=      5-min Rain = 0
KPAD 180450Z 20008KT 05/04 A3003 RMK A01 T00510035  RH  092%=      5-min Rain = 0
KPAD 180455Z 20008KT 05/04 A3003 RMK A01 T00500035  RH  092%=      5-min Rain = 0
KPAD 180500Z 20008KT 05/03 A3003 RMK A01 T00490034  RH  092%=      5-min Rain = 0
KPAD 180505Z 20009KT 05/04 A3002 RMK A01 T00490035  RH  093%=      5-min Rain = 0
KPAD 180510Z 20009KT 05/04 A3002 RMK A01 T00500037  RH  093%=      5-min Rain = 0
KPAD 180515Z 20008KT 05/04 A3002 RMK A01 T00510038  RH  093%=      5-min Rain = 0
KPAD 180520Z 20009KT 05/04 A3002 RMK A01 T00510038  RH  093%=      5-min Rain = 0
KPAD 180525Z 19009KT 05/04 A3002 RMK A01 T00510038  RH  093%=      5-min Rain = 0
KPAD 180530Z 20009KT 06/04 A3002 RMK A01 T00550042  RH  093%=      5-min Rain = 0
KPAD 180535Z 20009KT 05/04 A3002 RMK A01 T00540040  RH  093%=      5-min Rain = 0
KPAD 180540Z 22007KT 05/04 A3001 RMK A01 T00530039  RH  093%=      5-min Rain = 0
KPAD 180545Z 22006KT 05/04 A3001 RMK A01 T00510037  RH  093%=      5-min Rain = 0
KPAD 180550Z 21007KT 05/04 A3001 RMK A01 T00490036  RH  093%=      5-min Rain = 0
KPAD 180555Z 21009KT 05/04 A3001 RMK A01 T00490036  RH  093%=      5-min Rain = 0

Page generated in 0.0093 seconds.